Time;durP1;ratioP1;P1;durP2;ratioP2;P2;SDS_P1;SDS_P2;PMS_P1;PMS_P2;Temp;Humidity;BMP_temperature;BMP_pressure;BME280_temperature;BME280_humidity;BME280_pressure;Samples;Min_cycle;Max_cycle;Signal;HPM_P1;HPM_P2
2022/07/26 00:00:22;;;;;;;3.80;3.07;;;19.30;99.90;;;;;;5079272;28;20837;-58
2022/07/26 00:02:51;;;;;;;4.83;2.70;;;19.30;99.90;;;;;;5080673;28;20519;-58
2022/07/26 00:05:19;;;;;;;3.07;2.33;;;19.30;99.90;;;;;;5078682;28;20552;-57
2022/07/26 00:07:46;;;;;;;3.47;2.23;;;19.40;99.90;;;;;;5080149;28;20462;-54
2022/07/26 00:10:18;;;;;;;3.50;2.60;;;19.40;99.90;;;;;;5080110;28;20875;-55
2022/07/26 00:12:48;;;;;;;8.40;2.83;;;19.30;99.90;;;;;;5080309;28;20469;-55
2022/07/26 00:15:15;;;;;;;5.27;3.30;;;19.10;99.90;;;;;;5080094;28;20611;-55
2022/07/26 00:17:43;;;;;;;3.80;3.30;;;19.10;99.90;;;;;;5078922;28;20467;-54
2022/07/26 00:20:13;;;;;;;6.50;3.10;;;19.10;99.90;;;;;;5079344;28;20473;-54
2022/07/26 00:22:40;;;;;;;6.60;3.10;;;19.10;99.90;;;;;;5078642;28;20468;-55
2022/07/26 00:25:10;;;;;;;8.57;3.10;;;19.10;99.90;;;;;;5078415;28;20461;-55
2022/07/26 00:27:37;;;;;;;4.73;2.80;;;19.00;99.90;;;;;;5078894;28;20963;-58
2022/07/26 00:30:06;;;;;;;2.97;2.53;;;19.00;99.90;;;;;;5065361;28;20484;-54
2022/07/26 00:32:34;;;;;;;6.70;2.93;;;19.00;99.90;;;;;;5071611;28;20775;-57
2022/07/26 00:35:10;;;;;;;5.13;2.60;;;19.00;99.90;;;;;;5079678;28;20495;-56
2022/07/26 00:37:38;;;;;;;6.27;2.70;;;19.10;99.90;;;;;;5079508;28;20469;-57
2022/07/26 00:40:07;;;;;;;4.23;2.50;;;19.00;99.90;;;;;;5079472;28;20497;-58
2022/07/26 00:42:34;;;;;;;4.67;2.67;;;19.10;99.90;;;;;;5078724;28;20834;-56
2022/07/26 00:45:02;;;;;;;3.80;2.90;;;19.10;99.90;;;;;;5078827;28;20440;-56
2022/07/26 00:47:32;;;;;;;10.30;2.70;;;19.00;99.90;;;;;;5078876;28;20504;-57
2022/07/26 00:50:04;;;;;;;5.27;2.50;;;18.90;99.90;;;;;;5078414;28;20462;-59
2022/07/26 00:52:34;;;;;;;7.40;3.33;;;18.90;99.90;;;;;;5078086;28;20487;-58
2022/07/26 00:55:06;;;;;;;6.03;3.17;;;18.90;99.90;;;;;;5078305;28;20521;-57
2022/07/26 00:57:39;;;;;;;7.50;3.23;;;18.70;99.90;;;;;;5077114;28;20457;-54
2022/07/26 01:00:10;;;;;;;5.40;3.40;;;18.60;99.90;;;;;;5077660;28;20428;-59
2022/07/26 01:02:37;;;;;;;8.50;3.07;;;18.60;99.90;;;;;;5075370;28;20453;-55
2022/07/26 01:05:07;;;;;;;7.20;3.30;;;18.50;99.90;;;;;;5077948;28;20540;-56
2022/07/26 01:07:35;;;;;;;4.70;3.60;;;18.50;99.90;;;;;;5077622;28;20522;-57
2022/07/26 01:10:07;;;;;;;5.17;3.37;;;18.40;99.90;;;;;;5077862;28;20484;-55
2022/07/26 01:12:34;;;;;;;9.77;4.00;;;18.30;99.90;;;;;;5077854;28;20453;-58
2022/07/26 01:15:02;;;;;;;6.20;4.03;;;18.30;99.90;;;;;;5077894;28;20568;-58
2022/07/26 01:17:30;;;;;;;7.10;4.00;;;18.30;99.90;;;;;;5078311;28;20539;-55
2022/07/26 01:19:57;;;;;;;9.80;3.83;;;18.20;99.90;;;;;;5074997;28;20552;-59
2022/07/26 01:22:29;;;;;;;4.63;3.40;;;18.20;99.90;;;;;;5077327;28;20466;-55
2022/07/26 01:25:03;;;;;;;7.40;4.20;;;18.10;99.90;;;;;;5075790;28;20460;-55
2022/07/26 01:27:30;;;;;;;8.00;3.97;;;18.10;99.90;;;;;;5076121;28;20440;-58
2022/07/26 01:29:57;;;;;;;6.83;3.63;;;18.00;99.90;;;;;;5076996;28;20432;-53
2022/07/26 01:32:28;;;;;;;7.13;4.07;;;18.00;99.90;;;;;;5079213;28;20561;-56
2022/07/26 01:34:55;;;;;;;6.93;3.83;;;17.90;99.90;;;;;;5078646;28;20492;-54
2022/07/26 01:37:28;;;;;;;5.57;3.70;;;17.90;99.90;;;;;;5078780;28;20838;-57
2022/07/26 01:39:55;;;;;;;9.27;4.20;;;17.80;99.90;;;;;;5078433;28;20938;-56
2022/07/26 01:42:22;;;;;;;9.00;4.10;;;17.80;99.90;;;;;;5079163;28;20501;-56
2022/07/26 01:44:50;;;;;;;6.30;3.90;;;17.90;99.90;;;;;;5078685;28;20485;-56
2022/07/26 01:47:17;;;;;;;8.00;3.97;;;17.90;99.90;;;;;;5078630;28;20768;-53
2022/07/26 01:49:44;;;;;;;9.20;4.67;;;17.80;99.90;;;;;;5078199;28;20487;-58
2022/07/26 01:52:13;;;;;;;5.00;3.90;;;17.90;99.90;;;;;;5078618;28;20460;-57
2022/07/26 01:54:42;;;;;;;5.63;3.53;;;17.80;99.90;;;;;;5077690;28;20795;-55
2022/07/26 01:57:10;;;;;;;5.17;3.90;;;17.90;99.90;;;;;;5078664;28;20462;-56
2022/07/26 01:59:37;;;;;;;4.80;3.50;;;17.90;99.90;;;;;;5078176;28;20534;-56
2022/07/26 02:02:07;;;;;;;3.27;2.97;;;17.80;99.90;;;;;;5078288;28;20560;-55
2022/07/26 02:07:19;;;;;;;6.50;3.53;;;17.90;99.90;;;;;;5077873;28;20433;-57
2022/07/26 02:09:48;;;;;;;7.00;2.87;;;17.80;99.90;;;;;;5077623;28;20549;-56
2022/07/26 02:12:16;;;;;;;5.60;2.97;;;17.90;99.90;;;;;;5078498;28;20465;-58
2022/07/26 02:14:46;;;;;;;6.73;2.67;;;17.90;99.90;;;;;;5077844;28;20873;-55
2022/07/26 02:17:13;;;;;;;6.47;2.70;;;17.90;99.90;;;;;;5078091;28;20457;-52
2022/07/26 02:19:43;;;;;;;4.57;2.87;;;17.90;99.90;;;;;;5078187;28;20471;-54
2022/07/26 02:22:12;;;;;;;6.93;3.17;;;18.00;99.90;;;;;;5078065;28;20442;-58
2022/07/26 02:24:40;;;;;;;6.97;3.03;;;18.00;99.90;;;;;;5077843;28;20878;-58
2022/07/26 02:27:09;;;;;;;3.63;2.33;;;18.00;99.90;;;;;;5077677;28;20465;-54
2022/07/26 02:29:40;;;;;;;8.73;3.20;;;18.00;99.90;;;;;;5077922;28;20564;-55
2022/07/26 02:32:08;;;;;;;3.90;2.50;;;18.00;99.90;;;;;;5077870;28;20522;-56
2022/07/26 02:34:35;;;;;;;5.33;3.37;;;18.00;99.90;;;;;;5077076;28;20493;-56
2022/07/26 02:37:03;;;;;;;4.93;3.10;;;17.90;99.90;;;;;;5077794;28;20462;-57
2022/07/26 02:39:30;;;;;;;5.50;2.80;;;18.00;99.90;;;;;;5077571;28;20461;-56
2022/07/26 02:41:59;;;;;;;4.33;2.43;;;17.90;99.90;;;;;;5077647;28;20465;-52
2022/07/26 02:44:29;;;;;;;5.00;3.33;;;17.90;99.90;;;;;;5077721;28;20973;-55
2022/07/26 02:46:56;;;;;;;5.70;3.10;;;17.90;99.90;;;;;;5075476;28;20474;-56
2022/07/26 02:49:23;;;;;;;7.57;3.07;;;17.90;99.90;;;;;;5066918;28;20449;-57
2022/07/26 02:51:51;;;;;;;6.30;2.93;;;18.00;99.90;;;;;;5076935;28;20566;-58
2022/07/26 02:54:18;;;;;;;5.63;2.70;;;18.00;99.90;;;;;;5077572;28;20496;-57
2022/07/26 02:56:47;;;;;;;6.40;2.60;;;17.90;99.90;;;;;;5077293;28;20516;-58
2022/07/26 02:59:14;;;;;;;3.70;2.43;;;17.80;99.90;;;;;;5077028;28;20877;-55
2022/07/26 03:01:42;;;;;;;5.40;2.60;;;17.80;99.90;;;;;;5076930;28;20535;-57
2022/07/26 03:04:10;;;;;;;4.87;2.70;;;17.70;99.90;;;;;;5077452;28;20895;-53
2022/07/26 03:06:37;;;;;;;5.60;3.50;;;17.70;99.90;;;;;;5077082;28;20921;-57
2022/07/26 03:09:05;;;;;;;5.13;3.03;;;17.70;99.90;;;;;;5077314;28;20465;-52
2022/07/26 03:11:34;;;;;;;8.00;3.30;;;17.70;99.90;;;;;;5076974;28;20480;-55
2022/07/26 03:14:04;;;;;;;8.33;3.60;;;17.70;99.90;;;;;;5077479;28;20468;-55
2022/07/26 03:16:31;;;;;;;6.13;3.37;;;17.80;99.90;;;;;;5077398;28;20902;-54
2022/07/26 03:19:00;;;;;;;8.97;4.67;;;17.80;99.90;;;;;;5077127;28;20841;-53
2022/07/26 03:21:27;;;;;;;6.90;3.70;;;17.80;99.90;;;;;;5077069;28;20508;-52
2022/07/26 03:23:55;;;;;;;7.43;3.40;;;17.80;99.90;;;;;;5077285;28;20462;-58
2022/07/26 03:26:25;;;;;;;4.17;2.93;;;17.80;99.90;;;;;;5077619;28;20461;-54
2022/07/26 03:28:56;;;;;;;7.90;3.53;;;17.80;99.90;;;;;;5076980;28;20900;-58
2022/07/26 03:31:24;;;;;;;7.43;3.43;;;17.80;99.90;;;;;;5076902;28;20440;-58
2022/07/26 03:33:52;;;;;;;5.10;3.33;;;17.80;99.90;;;;;;5077119;28;20889;-58
2022/07/26 03:36:21;;;;;;;8.07;3.40;;;17.70;99.90;;;;;;5077118;28;20937;-58
2022/07/26 03:38:48;;;;;;;4.60;3.13;;;17.70;99.90;;;;;;5076748;28;20457;-56
2022/07/26 03:41:17;;;;;;;6.40;3.30;;;17.70;99.90;;;;;;5076774;28;20467;-58
2022/07/26 03:43:44;;;;;;;9.00;3.40;;;17.70;99.90;;;;;;5077056;28;20489;-58
2022/07/26 03:46:12;;;;;;;8.73;3.20;;;17.70;99.90;;;;;;5077350;28;20461;-57
2022/07/26 03:48:42;;;;;;;7.17;3.77;;;17.70;99.90;;;;;;5076486;28;20465;-57
2022/07/26 03:51:09;;;;;;;5.93;3.67;;;17.60;99.90;;;;;;5076890;28;20921;-58
2022/07/26 03:53:38;;;;;;;6.30;3.40;;;17.60;99.90;;;;;;5076961;28;20830;-57
2022/07/26 03:58:51;;;;;;;6.03;3.30;;;17.50;1.00;;;;;;5076203;28;20440;-57
2022/07/26 04:01:18;;;;;;;6.33;3.77;;;17.40;1.00;;;;;;5076218;28;20874;-56
2022/07/26 04:03:49;;;;;;;7.03;3.80;;;17.40;1.00;;;;;;5077114;28;20485;-52
2022/07/26 04:06:16;;;;;;;7.30;3.30;;;17.30;1.00;;;;;;5077335;28;20506;-56
2022/07/26 04:08:45;;;;;;;10.23;4.70;;;17.30;1.00;;;;;;5076366;28;20461;-55
2022/07/26 04:11:12;;;;;;;12.07;3.73;;;17.20;1.00;;;;;;5076948;28;20510;-56
2022/07/26 04:13:39;;;;;;;6.63;3.30;;;17.20;1.00;;;;;;5076973;28;20468;-54
2022/07/26 04:16:10;;;;;;;9.60;4.20;;;17.20;1.00;;;;;;5077078;28;20488;-59
2022/07/26 04:18:37;;;;;;;8.17;4.50;;;17.10;1.00;;;;;;5076366;28;20471;-60
2022/07/26 04:21:05;;;;;;;9.77;3.70;;;17.10;1.00;;;;;;5076390;28;20534;-61
2022/07/26 04:23:32;;;;;;;8.63;3.87;;;17.10;1.00;;;;;;5075444;28;20465;-60
2022/07/26 04:26:01;;;;;;;11.20;4.43;;;17.10;1.00;;;;;;5076030;28;20556;-60
2022/07/26 04:28:29;;;;;;;11.43;4.40;;;17.00;1.00;;;;;;5077511;28;20453;-60
2022/07/26 04:30:56;;;;;;;10.83;4.87;;;17.00;1.00;;;;;;5075676;28;20508;-58
2022/07/26 04:33:28;;;;;;;11.40;3.80;;;16.90;1.00;;;;;;5079943;28;20555;-60
2022/07/26 04:35:55;;;;;;;8.03;3.87;;;17.00;1.00;;;;;;5080394;28;20499;-59
2022/07/26 04:38:23;;;;;;;11.50;4.60;;;17.10;1.00;;;;;;5079118;28;21007;-58
2022/07/26 04:40:54;;;;;;;7.90;4.13;;;17.00;1.00;;;;;;5079112;28;20477;-60
2022/07/26 04:43:26;;;;;;;9.27;4.50;;;17.00;1.00;;;;;;5079153;28;20908;-57
2022/07/26 04:45:57;;;;;;;7.10;4.63;;;17.00;1.00;;;;;;5078846;28;20732;-59
2022/07/26 04:48:25;;;;;;;5.77;3.90;;;17.00;1.00;;;;;;5079352;28;20473;-57
2022/07/26 04:50:55;;;;;;;7.83;4.80;;;17.00;1.00;;;;;;5079356;28;20963;-58
2022/07/26 04:53:22;;;;;;;9.10;4.80;;;17.00;1.00;;;;;;5079382;28;20546;-58
2022/07/26 04:55:49;;;;;;;11.13;3.77;;;17.00;1.00;;;;;;5079618;28;20926;-58
2022/07/26 04:58:17;;;;;;;6.60;3.27;;;17.10;1.00;;;;;;5078151;28;20557;-59
2022/07/26 05:00:46;;;;;;;8.37;4.80;;;17.10;1.00;;;;;;5074470;28;20454;-58
2022/07/26 05:03:13;;;;;;;14.30;5.33;;;17.10;1.00;;;;;;5079833;28;20736;-60
2022/07/26 05:05:40;;;;;;;11.37;4.80;;;17.20;1.00;;;;;;5079745;28;20555;-59
2022/07/26 05:08:10;;;;;;;7.70;4.23;;;17.20;1.00;;;;;;5080843;28;20827;-57
2022/07/26 05:10:42;;;;;;;12.00;4.30;;;17.20;1.00;;;;;;5078709;28;20461;-53
2022/07/26 05:13:09;;;;;;;10.57;4.73;;;17.20;1.00;;;;;;5074872;28;20500;-58
2022/07/26 05:15:37;;;;;;;12.60;5.40;;;17.20;1.00;;;;;;5077844;28;20555;-59
2022/07/26 05:18:08;;;;;;;11.57;5.70;;;17.10;1.00;;;;;;5079456;28;20779;-55
2022/07/26 05:20:39;;;;;;;11.60;6.43;;;17.00;1.00;;;;;;5078645;28;20543;-60
2022/07/26 05:23:08;;;;;;;7.13;4.80;;;17.00;1.00;;;;;;5077788;28;20535;-63
2022/07/26 05:25:36;;;;;;;10.00;5.03;;;17.00;8.60;;;;;;5077441;28;20494;-63
2022/07/26 05:28:07;;;;;;;10.70;5.00;;;16.90;26.70;;;;;;5079114;28;20431;-62
2022/07/26 05:30:37;;;;;;;12.03;5.87;;;17.00;66.30;;;;;;5078234;28;20468;-62
2022/07/26 05:33:06;;;;;;;12.33;6.63;;;17.00;99.90;;;;;;5078702;28;20535;-62
2022/07/26 05:35:33;;;;;;;20.00;7.83;;;16.90;99.90;;;;;;5079138;28;20593;-64
2022/07/26 05:38:00;;;;;;;11.87;5.00;;;17.00;99.90;;;;;;5079249;28;20462;-64
2022/07/26 05:40:28;;;;;;;15.00;6.17;;;17.10;99.90;;;;;;5079294;28;20463;-64
2022/07/26 05:42:57;;;;;;;12.93;6.67;;;17.00;99.90;;;;;;5078494;28;20556;-63
2022/07/26 05:45:26;;;;;;;16.77;7.07;;;17.10;99.90;;;;;;5078073;28;20484;-64
2022/07/26 05:47:55;;;;;;;10.40;6.77;;;17.10;99.90;;;;;;5078637;28;20465;-63
2022/07/26 05:50:23;;;;;;;15.30;7.00;;;17.20;99.90;;;;;;5078869;28;20461;-63
2022/07/26 05:52:53;;;;;;;13.90;5.70;;;17.20;53.30;;;;;;5077634;28;20547;-63
2022/07/26 05:55:21;;;;;;;10.30;6.47;;;17.20;19.50;;;;;;5078835;28;20475;-63
2022/07/26 05:57:57;;;;;;;13.00;7.33;;;17.30;23.90;;;;;;5078421;28;21064;-63
2022/07/26 06:00:25;;;;;;;9.97;6.80;;;17.20;1.00;;;;;;5078716;28;20492;-62
2022/07/26 06:02:52;;;;;;;10.20;6.60;;;17.30;1.00;;;;;;5077230;28;20532;-63
2022/07/26 06:05:26;;;;;;;13.50;6.93;;;17.40;1.00;;;;;;5078840;28;20438;-62
2022/07/26 06:07:54;;;;;;;10.00;5.47;;;17.30;1.00;;;;;;5077823;28;20472;-62
2022/07/26 06:10:22;;;;;;;9.93;7.50;;;17.40;1.00;;;;;;5077265;28;20899;-63
2022/07/26 06:12:49;;;;;;;16.60;7.23;;;17.50;1.00;;;;;;5077745;28;20552;-62
2022/07/26 06:15:17;;;;;;;11.33;7.10;;;17.60;1.00;;;;;;5078182;28;20550;-62
2022/07/26 06:17:46;;;;;;;12.87;7.00;;;17.70;1.00;;;;;;5077514;28;20446;-61
2022/07/26 06:20:14;;;;;;;17.63;8.03;;;17.70;1.00;;;;;;5078188;28;20443;-62
2022/07/26 06:22:53;;;;;;;14.73;8.47;;;17.70;1.00;;;;;;5078107;28;20788;-60
2022/07/26 06:25:21;;;;;;;10.97;6.80;;;17.70;1.00;;;;;;5077934;28;20456;-61
2022/07/26 06:27:48;;;;;;;12.37;6.40;;;17.90;1.00;;;;;;5078295;28;20530;-62
2022/07/26 06:30:16;;;;;;;15.60;7.00;;;17.90;1.00;;;;;;5077805;28;20841;-61
2022/07/26 06:32:43;;;;;;;7.37;6.27;;;18.00;1.00;;;;;;5077510;28;20458;-61
2022/07/26 06:35:11;;;;;;;18.00;7.50;;;18.20;1.00;;;;;;5077780;28;20829;-62
2022/07/26 06:37:43;;;;;;;11.83;6.67;;;18.20;1.00;;;;;;5077636;28;20465;-61
2022/07/26 06:40:13;;;;;;;17.17;7.83;;;18.30;1.00;;;;;;5078007;28;20446;-61
2022/07/26 06:42:40;;;;;;;13.30;6.90;;;18.40;1.00;;;;;;5077485;28;20439;-62
2022/07/26 06:45:08;;;;;;;9.90;8.20;;;18.30;1.00;;;;;;5076887;28;20983;-61
2022/07/26 06:47:39;;;;;;;12.60;7.47;;;18.20;1.00;;;;;;5076779;28;20823;-61
2022/07/26 06:50:07;;;;;;;13.73;8.50;;;18.30;1.00;;;;;;5077921;28;20436;-62
2022/07/26 06:52:34;;;;;;;20.37;9.50;;;18.40;1.00;;;;;;5075981;28;20460;-61
2022/07/26 06:55:09;;;;;;;16.47;9.03;;;18.50;1.00;;;;;;5075613;28;20842;-61
2022/07/26 06:57:36;;;;;;;16.30;8.63;;;18.50;1.00;;;;;;5076565;28;20791;-61
2022/07/26 07:00:06;;;;;;;22.17;9.23;;;18.40;1.00;;;;;;5076729;28;20555;-61
2022/07/26 07:02:36;;;;;;;14.70;8.60;;;18.40;1.00;;;;;;5076564;28;20460;-62
2022/07/26 07:05:13;;;;;;;17.03;9.10;;;18.50;1.00;;;;;;5077085;28;20961;-61
2022/07/26 07:07:46;;;;;;;12.53;9.10;;;18.40;1.00;;;;;;5077432;28;20467;-61
2022/07/26 07:10:14;;;;;;;12.13;9.53;;;18.40;1.00;;;;;;5077553;28;20491;-61
2022/07/26 07:12:43;;;;;;;16.10;10.67;;;18.40;1.00;;;;;;5074566;28;20453;-62
2022/07/26 07:15:12;;;;;;;13.37;9.93;;;18.50;1.00;;;;;;5075147;28;20470;-61
2022/07/26 07:17:40;;;;;;;16.17;11.30;;;18.60;1.00;;;;;;5075846;28;20481;-61
2022/07/26 07:20:08;;;;;;;20.33;11.60;;;18.80;1.00;;;;;;5075815;28;20812;-61
2022/07/26 07:22:36;;;;;;;15.40;10.57;;;18.60;1.00;;;;;;5074704;28;20562;-61
2022/07/26 07:25:03;;;;;;;12.50;9.77;;;18.80;1.00;;;;;;5075963;28;20472;-61
2022/07/26 07:27:32;;;;;;;16.50;10.80;;;19.00;1.00;;;;;;5075500;28;20453;-61
2022/07/26 07:29:59;;;;;;;12.23;10.97;;;19.30;1.00;;;;;;5075845;28;20465;-61
2022/07/26 07:32:26;;;;;;;13.10;9.87;;;19.60;1.00;;;;;;5075928;28;20440;-61
2022/07/26 07:34:54;;;;;;;12.60;9.60;;;19.80;99.90;;;;;;5075613;28;20562;-60
2022/07/26 07:37:22;;;;;;;13.63;10.43;;;20.00;99.90;;;;;;5072482;28;20547;-62
2022/07/26 07:39:53;;;;;;;14.03;10.10;;;20.00;99.90;;;;;;5075553;28;20428;-61
2022/07/26 07:42:20;;;;;;;17.50;10.70;;;19.90;99.90;;;;;;5075962;28;20746;-61
2022/07/26 07:44:52;;;;;;;12.63;9.13;;;19.70;99.90;;;;;;5075131;28;20514;-60
2022/07/26 07:47:25;;;;;;;14.23;9.50;;;19.80;99.90;;;;;;5072625;28;20485;-61
2022/07/26 07:49:55;;;;;;;15.87;10.40;;;20.00;99.90;;;;;;5075654;28;20547;-62
2022/07/26 07:52:23;;;;;;;11.60;8.90;;;20.20;99.90;;;;;;5071958;28;20481;-62
2022/07/26 07:54:50;;;;;;;15.33;9.97;;;20.50;99.90;;;;;;5074438;28;20470;-60
2022/07/26 07:57:19;;;;;;;12.83;9.90;;;20.40;99.90;;;;;;5074809;28;20489;-61
2022/07/26 07:59:48;;;;;;;13.80;8.83;;;20.10;99.90;;;;;;5074765;28;20468;-61
2022/07/26 08:02:17;;;;;;;12.70;8.60;;;20.10;99.90;;;;;;5075488;28;20488;-62
2022/07/26 08:04:47;;;;;;;12.87;9.87;;;20.20;99.90;;;;;;5076095;28;20465;-62
2022/07/26 08:07:25;;;;;;;12.70;9.57;;;20.40;99.90;;;;;;5078538;28;20453;-62
2022/07/26 08:09:53;;;;;;;10.03;7.67;;;20.60;99.90;;;;;;5080126;28;20461;-61
2022/07/26 08:12:21;;;;;;;11.70;8.10;;;21.20;99.90;;;;;;5080475;28;20958;-62
2022/07/26 08:14:48;;;;;;;14.20;7.70;;;21.20;99.90;;;;;;5079580;28;20526;-62
2022/07/26 08:17:18;;;;;;;16.73;8.67;;;21.30;99.90;;;;;;5079904;28;20551;-62
2022/07/26 08:19:48;;;;;;;10.93;8.13;;;21.40;99.90;;;;;;5079455;28;20496;-62
2022/07/26 08:22:16;;;;;;;10.40;7.30;;;21.90;99.90;;;;;;5079697;28;20464;-62
2022/07/26 08:24:45;;;;;;;16.03;7.07;;;22.80;99.90;;;;;;5078815;28;20552;-62
2022/07/26 08:27:12;;;;;;;11.53;7.67;;;23.20;99.90;;;;;;5079372;28;20516;-61
2022/07/26 08:29:41;;;;;;;10.30;7.40;;;23.50;99.90;;;;;;5079822;28;20465;-62
2022/07/26 08:32:08;;;;;;;11.33;7.27;;;23.80;99.90;;;;;;5079437;28;20463;-62
2022/07/26 08:34:44;;;;;;;12.90;8.03;;;23.20;99.90;;;;;;5079451;28;20463;-63
2022/07/26 08:37:14;;;;;;;11.17;7.23;;;23.00;99.90;;;;;;5079277;28;20929;-61
2022/07/26 08:39:47;;;;;;;14.80;7.40;;;22.50;99.90;;;;;;5078843;28;20471;-60
2022/07/26 08:42:15;;;;;;;8.00;6.20;;;22.20;99.90;;;;;;5078578;28;20799;-61
2022/07/26 08:44:44;;;;;;;11.20;7.40;;;21.90;99.90;;;;;;5077811;28;20469;-61
2022/07/26 08:47:13;;;;;;;11.50;6.77;;;22.40;99.90;;;;;;5078884;28;20455;-61
2022/07/26 08:49:42;;;;;;;9.80;6.57;;;22.80;99.90;;;;;;5077761;28;20536;-61
2022/07/26 08:52:11;;;;;;;14.70;6.00;;;23.30;99.90;;;;;;5078078;28;20831;-59
2022/07/26 08:54:45;;;;;;;10.67;5.70;;;23.60;99.90;;;;;;5077626;28;20530;-58
2022/07/26 08:57:14;;;;;;;8.20;5.70;;;23.50;99.90;;;;;;5079008;28;20467;-61
2022/07/26 08:59:42;;;;;;;13.70;6.53;;;23.20;99.90;;;;;;5079188;28;20869;-62
2022/07/26 09:02:14;;;;;;;10.70;5.87;;;22.60;99.90;;;;;;5079075;28;20879;-61
2022/07/26 09:04:45;;;;;;;7.30;5.80;;;23.40;99.90;;;;;;5078835;28;21177;-60
2022/07/26 09:07:17;;;;;;;11.63;6.10;;;24.40;99.90;;;;;;5078594;28;20833;-60
2022/07/26 09:09:59;;;;;;;10.30;5.20;;;24.60;99.90;;;;;;5078287;28;20473;-62
2022/07/26 09:12:31;;;;;;;11.00;5.30;;;24.70;99.90;;;;;;5074910;28;20556;-58
2022/07/26 09:15:02;;;;;;;9.20;5.90;;;23.80;99.90;;;;;;5077064;28;20470;-58
2022/07/26 09:17:43;;;;;;;5.67;4.80;;;23.60;99.90;;;;;;5078193;28;21016;-61
2022/07/26 09:20:14;;;;;;;8.87;5.50;;;23.50;99.90;;;;;;5078093;28;20555;-61
2022/07/26 09:23:00;;;;;;;10.00;5.17;;;24.00;99.90;;;;;;5078519;28;20544;-62
2022/07/26 09:25:30;;;;;;;7.37;5.80;;;24.80;99.90;;;;;;5077187;28;20457;-60
2022/07/26 09:27:59;;;;;;;8.03;5.20;;;24.90;99.90;;;;;;5077442;28;20436;-63
2022/07/26 09:30:32;;;;;;;7.27;4.30;;;24.50;99.90;;;;;;5078924;28;20491;-62
2022/07/26 09:33:04;;;;;;;7.90;4.63;;;24.10;99.90;;;;;;5077809;28;20836;-62
2022/07/26 09:35:38;;;;;;;13.03;5.27;;;24.10;99.90;;;;;;5078204;28;20461;-62
2022/07/26 09:38:21;;;;;;;8.60;4.37;;;25.20;99.90;;;;;;5078426;28;20503;-62
2022/07/26 09:40:49;;;;;;;7.60;5.20;;;24.60;99.90;;;;;;5077799;28;20762;-62
2022/07/26 09:43:16;;;;;;;8.83;5.00;;;24.60;99.90;;;;;;5073682;28;20448;-62
2022/07/26 09:45:43;;;;;;;6.43;4.53;;;24.30;99.90;;;;;;5077930;28;20461;-62
2022/07/26 09:48:14;;;;;;;7.83;5.00;;;24.00;99.90;;;;;;5074764;28;20551;-61
2022/07/26 09:50:50;;;;;;;5.67;4.50;;;23.80;99.90;;;;;;5077252;28;20496;-62
2022/07/26 09:53:21;;;;;;;5.70;4.40;;;23.00;99.90;;;;;;5075616;28;20813;-61
2022/07/26 09:56:00;;;;;;;6.90;4.70;;;22.80;99.90;;;;;;5077816;28;20809;-62
2022/07/26 09:58:29;;;;;;;7.63;4.10;;;22.40;99.90;;;;;;5077191;28;20485;-61
2022/07/26 10:00:59;;;;;;;7.00;4.90;;;21.80;99.90;;;;;;5077438;28;20466;-61
2022/07/26 10:03:30;;;;;;;7.60;4.93;;;21.30;99.90;;;;;;5076729;28;20464;-61
2022/07/26 10:06:00;;;;;;;9.27;6.27;;;21.40;99.90;;;;;;5077179;28;20461;-61
2022/07/26 10:08:33;;;;;;;9.13;4.80;;;21.70;99.90;;;;;;5076719;28;20905;-62
2022/07/26 10:11:05;;;;;;;9.47;6.17;;;21.90;99.90;;;;;;5075917;28;20527;-62
2022/07/26 10:13:36;;;;;;;6.53;4.53;;;22.10;99.90;;;;;;5075737;28;20468;-61
2022/07/26 10:16:04;;;;;;;7.50;5.30;;;22.20;99.90;;;;;;5075740;28;20461;-62
2022/07/26 10:18:46;;;;;;;7.37;5.23;;;22.10;99.90;;;;;;5075979;28;20493;-62
2022/07/26 10:21:24;;;;;;;9.70;6.90;;;21.80;99.90;;;;;;5073860;28;20770;-61
2022/07/26 10:23:55;;;;;;;7.60;5.70;;;21.30;99.90;;;;;;5075983;28;20457;-61
2022/07/26 10:26:48;;;;;;;5.73;5.13;;;21.30;99.90;;;;;;5073756;28;20457;-61
2022/07/26 10:29:28;;;;;;;8.37;6.30;;;21.20;99.90;;;;;;5071485;28;20536;-61
2022/07/26 10:32:16;;;;;;;8.40;5.80;;;21.20;99.90;;;;;;5068684;28;20811;-58
2022/07/26 10:34:46;;;;;;;6.57;4.50;;;21.20;99.90;;;;;;5074687;28;20465;-61
2022/07/26 10:37:32;;;;;;;8.87;4.57;;;21.10;99.90;;;;;;5074477;28;20485;-61
2022/07/26 10:40:28;;;;;;;5.00;4.47;;;21.00;99.90;;;;;;5076283;28;20902;-60
2022/07/26 10:43:07;;;;;;;7.73;5.50;;;20.90;99.90;;;;;;5076703;28;20465;-61
2022/07/26 10:45:37;;;;;;;7.97;5.47;;;21.00;99.90;;;;;;5077492;28;20469;-60
2022/07/26 10:48:13;;;;;;;10.03;6.10;;;21.10;99.90;;;;;;5075774;28;20431;-61
2022/07/26 10:50:44;;;;;;;8.70;7.13;;;21.10;99.90;;;;;;5077063;28;20571;-57
2022/07/26 10:53:22;;;;;;;6.80;6.20;;;21.40;99.90;;;;;;5076312;28;20817;-61
2022/07/26 10:55:54;;;;;;;6.73;6.00;;;21.70;99.90;;;;;;5074500;28;20530;-61
2022/07/26 10:58:25;;;;;;;12.97;6.43;;;22.00;99.90;;;;;;5077300;28;20778;-61
2022/07/26 11:01:00;;;;;;;8.50;6.07;;;22.20;99.90;;;;;;5095197;28;20543;-59
2022/07/26 11:03:41;;;;;;;8.70;5.20;;;23.10;99.90;;;;;;5078385;28;20460;-60
2022/07/26 11:06:14;;;;;;;8.60;6.83;;;24.10;99.90;;;;;;5073812;28;20552;-61
2022/07/26 11:08:47;;;;;;;6.60;4.07;;;25.40;99.90;;;;;;5076208;28;20461;-61
2022/07/26 11:11:27;;;;;;;5.13;3.97;;;26.20;99.90;;;;;;5077127;28;20532;-60
2022/07/26 11:14:04;;;;;;;5.00;3.87;;;26.70;99.90;;;;;;5076905;28;20468;-62
2022/07/26 11:16:37;;;;;;;4.00;3.60;;;27.30;99.90;;;;;;5076576;28;20465;-61
2022/07/26 11:19:23;;;;;;;8.90;4.03;;;26.80;99.90;;;;;;5077113;28;20461;-61
2022/07/26 11:22:03;;;;;;;7.23;4.00;;;26.20;99.90;;;;;;5075224;28;20555;-61
2022/07/26 11:24:32;;;;;;;7.60;3.77;;;25.50;99.90;;;;;;5076592;28;20511;-60
2022/07/26 11:27:06;;;;;;;6.07;3.87;;;24.70;99.90;;;;;;5076611;28;20453;-59
2022/07/26 11:29:36;;;;;;;5.50;4.93;;;23.70;99.90;;;;;;5075703;28;20496;-61
2022/07/26 11:32:04;;;;;;;8.63;6.30;;;23.20;99.90;;;;;;5069752;28;20469;-61
2022/07/26 11:34:33;;;;;;;6.80;6.10;;;21.20;99.90;;;;;;5072852;28;20739;-60
2022/07/26 11:37:05;;;;;;;9.47;6.40;;;20.70;99.90;;;;;;5072309;28;20887;-61
2022/07/26 11:39:35;;;;;;;6.90;6.30;;;20.40;99.90;;;;;;5073757;28;20555;-57
2022/07/26 11:42:04;;;;;;;7.03;6.07;;;20.50;99.90;;;;;;5077829;28;20745;-61
2022/07/26 11:44:32;;;;;;;7.87;6.50;;;20.50;99.90;;;;;;5077023;28;20840;-56
2022/07/26 11:47:10;;;;;;;6.90;5.30;;;20.50;99.90;;;;;;5076264;28;20511;-60
2022/07/26 11:49:37;;;;;;;6.93;5.90;;;20.50;99.90;;;;;;5071797;28;20443;-60
2022/07/26 11:52:05;;;;;;;5.30;4.80;;;20.80;99.90;;;;;;5079140;28;20591;-59
2022/07/26 11:54:47;;;;;;;5.00;4.53;;;21.30;99.90;;;;;;5078605;28;20541;-60
2022/07/26 11:57:14;;;;;;;5.97;4.90;;;21.60;99.90;;;;;;5080374;28;20513;-56
2022/07/26 11:59:46;;;;;;;4.70;4.30;;;21.30;99.90;;;;;;5079702;28;20556;-59
2022/07/26 12:02:25;;;;;;;5.87;5.37;;;21.40;99.90;;;;;;5080514;28;20740;-60
2022/07/26 12:05:13;;;;;;;5.27;4.87;;;21.50;99.90;;;;;;5080450;28;20438;-58
2022/07/26 12:07:54;;;;;;;6.03;5.00;;;20.70;99.90;;;;;;5080443;28;20468;-60
2022/07/26 12:10:23;;;;;;;5.20;4.50;;;20.60;99.90;;;;;;5080551;28;20461;-60
2022/07/26 12:13:06;;;;;;;6.27;5.70;;;20.60;99.90;;;;;;5078119;28;20977;-60
2022/07/26 12:15:47;;;;;;;5.57;5.10;;;20.90;99.90;;;;;;5072127;28;20539;-59
2022/07/26 12:18:23;;;;;;;4.50;4.20;;;21.10;99.90;;;;;;5073392;28;20525;-59
2022/07/26 12:20:59;;;;;;;7.30;3.87;;;21.10;99.90;;;;;;5077699;28;20567;-58
2022/07/26 12:23:27;;;;;;;3.80;3.40;;;21.40;99.90;;;;;;5075894;28;20530;-57
2022/07/26 12:25:56;;;;;;;4.23;3.57;;;21.20;99.90;;;;;;5070242;28;20762;-59
2022/07/26 12:28:41;;;;;;;2.77;2.57;;;21.50;99.90;;;;;;5073843;28;20465;-60
2022/07/26 12:31:26;;;;;;;3.60;3.30;;;22.50;99.90;;;;;;5074776;28;20603;-60
2022/07/26 12:33:53;;;;;;;3.23;2.20;;;22.90;99.90;;;;;;5061160;28;20480;-59
2022/07/26 12:36:26;;;;;;;4.47;2.60;;;23.30;99.90;;;;;;5060299;28;20491;-60
2022/07/26 12:38:54;;;;;;;4.73;2.37;;;23.60;99.90;;;;;;5079533;28;20497;-60
2022/07/26 12:41:37;;;;;;;2.80;2.20;;;24.70;99.90;;;;;;5078772;28;20500;-59
2022/07/26 12:44:05;;;;;;;2.43;2.23;;;24.90;99.90;;;;;;5078115;28;20523;-59
2022/07/26 12:46:33;;;;;;;3.07;2.87;;;24.60;99.90;;;;;;5078419;28;20560;-57
2022/07/26 12:49:00;;;;;;;2.73;2.53;;;24.00;99.90;;;;;;5078844;28;20493;-56
2022/07/26 12:51:32;;;;;;;2.80;2.60;;;23.60;99.90;;;;;;5078985;28;20948;-61
2022/07/26 12:53:59;;;;;;;2.73;2.50;;;23.70;99.90;;;;;;5079396;28;20492;-56
2022/07/26 12:56:26;;;;;;;2.93;2.30;;;23.10;99.90;;;;;;5079701;28;20439;-60
2022/07/26 12:58:59;;;;;;;2.70;1.73;;;23.00;99.90;;;;;;5079170;28;20552;-60
2022/07/26 13:01:41;;;;;;;3.10;2.60;;;22.70;99.90;;;;;;5079157;28;20461;-58
2022/07/26 13:04:08;;;;;;;2.20;2.00;;;22.30;99.90;;;;;;5079785;28;20461;-58
2022/07/26 13:06:35;;;;;;;2.20;2.00;;;22.70;99.90;;;;;;5079201;28;20844;-60